.
WxDataArchive / Data Records for 2010-06-06
2010-06-05 June 2010 2010-06-07

Data Records for Sunday, 06 June 2010

Time	Temp	Chill	HIndex	Humid	Dewpt	 Wind 	HiWind	WindDir	Rain 	Barom 
-----	----	-----	------	-----	-----	------	------	-------	-----	----- 
00:00	77.4	77.4	79.3	75	68.8	3	6	248	0.00	29.483 
00:05	77.2	77.2	79.0	75	68.6	2	7	248	0.00	29.483 
00:10	77.2	77.2	79.0	75	68.6	2	7	270	0.00	29.483 
00:15	77.4	77.4	79.3	74	68.4	3	14	270	0.01	29.507 
00:20	77.4	77.4	79.3	74	68.4	3	7	248	0.00	29.507 
00:25	77.6	77.6	79.6	74	68.6	3	6	292	0.00	29.507 
00:30	77.6	77.6	79.6	74	68.6	3	7	270	0.00	29.511 
00:35	77.6	77.6	79.6	75	69.0	2	6	248	0.00	29.511 
00:40	77.4	77.4	79.3	75	68.8	3	7	248	0.00	29.511 
00:45	77.4	77.4	79.3	76	69.2	3	9	270	0.00	29.505 
00:50	77.4	77.4	79.3	76	69.2	3	8	270	0.00	29.505 
00:55	77.4	77.4	79.3	76	69.2	3	6	270	0.00	29.505 
01:00	77.4	77.4	79.3	76	69.2	3	10	270	0.00	29.474 
01:05	77.4	77.4	79.3	76	69.2	4	10	270	0.00	29.474 
01:10	77.4	77.4	79.3	76	69.2	3	12	270	0.00	29.474 
01:15	77.4	77.4	79.3	76	69.2	4	7	270	0.00	29.470 
01:20	77.4	77.4	79.3	77	69.6	3	13	270	0.00	29.470 
01:25	77.2	77.2	79.0	77	69.4	4	9	270	0.00	29.470 
01:30	77.0	77.0	78.7	77	69.2	4	10	270	0.00	29.444 
01:35	77.0	77.0	78.7	77	69.2	4	10	270	0.00	29.444 
01:40	77.2	77.2	79.0	77	69.4	4	12	270	0.00	29.444 
01:45	77.0	77.0	78.7	77	69.2	4	13	270	0.00	29.463 
01:50	76.8	76.8	78.3	78	69.4	4	11	248	0.00	29.463 
01:55	76.7	76.7	78.1	79	69.7	4	10	270	0.00	29.463 
02:00	76.5	76.5	77.8	79	69.5	3	12	248	0.00	29.471 
02:05	76.5	76.5	77.8	80	69.9	4	10	270	0.00	29.471 
02:10	76.5	76.5	77.8	80	69.9	5	10	270	0.00	29.471 
02:15	76.5	76.5	77.8	79	69.5	4	12	270	0.00	29.468 
02:20	76.3	76.3	77.5	80	69.7	4	10	248	0.00	29.468 
02:25	76.1	76.1	77.1	80	69.5	4	7	270	0.00	29.468 
02:30	76.1	76.1	77.1	80	69.5	4	10	248	0.00	29.471 
02:35	76.1	76.1	77.1	80	69.5	4	7	270	0.00	29.471 
02:40	76.1	76.1	77.1	80	69.5	3	10	270	0.00	29.471 
02:45	76.0	76.0	77.0	80	69.4	5	12	270	0.00	29.469 
02:50	76.0	76.0	77.0	80	69.4	4	11	270	0.00	29.469 
02:55	75.8	75.8	76.6	81	69.5	3	9	270	0.00	29.469 
03:00	75.6	75.6	76.3	81	69.3	3	7	270	0.00	29.474 
03:05	75.4	75.4	76.0	81	69.1	3	10	270	0.00	29.474 
03:10	75.3	75.3	75.8	82	69.4	4	7	270	0.00	29.474 
03:15	75.1	75.1	75.5	82	69.2	3	6	248	0.00	29.470 
03:20	75.1	75.1	75.5	82	69.2	4	7	270	0.00	29.470 
03:25	75.1	75.1	75.5	82	69.2	3	7	270	0.00	29.470 
03:30	74.9	74.9	74.9	83	69.4	3	7	270	0.00	29.487 
03:35	74.2	74.2	74.2	80	67.6	4	6	292	0.00	29.487 
03:40	73.0	73.0	73.0	80	66.5	3	6	315	0.00	29.487 
03:45	72.3	72.3	72.3	81	66.1	4	8	315	0.00	29.510 
03:50	71.8	71.8	71.8	82	66.0	4	9	315	0.00	29.510 
03:55	70.9	70.9	70.9	82	65.1	4	8	270	0.00	29.510 
04:00	70.6	70.6	70.6	82	64.8	4	7	270	0.00	29.522 
04:05	70.6	70.6	70.6	82	64.8	2	6	270	0.00	29.522 
04:10	70.6	70.6	70.6	81	64.5	4	9	270	0.00	29.522 
04:15	70.4	70.4	70.4	81	64.3	3	7	315	0.00	29.525 
04:20	70.3	70.3	70.3	81	64.2	3	7	315	0.00	29.525 
04:25	70.1	70.1	70.1	80	63.6	3	6	315	0.00	29.525 
04:30	69.9	69.9	69.9	81	63.8	3	8	270	0.00	29.529 
04:35	69.8	69.8	69.8	81	63.7	3	8	270	0.00	29.529 
04:40	69.6	69.6	69.6	81	63.5	3	6	270	0.00	29.529 
04:45	69.3	69.3	69.3	81	63.2	3	6	270	0.00	29.538 
04:50	68.9	68.9	68.9	82	63.2	3	7	315	0.00	29.538 
04:55	68.6	68.6	68.6	82	62.9	3	6	270	0.00	29.538 
05:00	68.3	68.3	68.3	82	62.6	2	6	270	0.00	29.547 
05:05	68.1	68.1	68.1	83	62.7	3	6	270	0.00	29.547 
05:10	67.9	67.9	67.9	84	62.9	3	6	270	0.00	29.547 
05:15	67.9	67.9	67.9	84	62.9	2	5	270	0.00	29.564 
05:20	67.8	67.8	67.8	83	62.4	2	5	270	0.00	29.564 
05:25	67.4	67.4	67.4	82	61.7	3	6	315	0.00	29.564 
05:30	67.3	67.3	67.3	80	60.9	4	11	292	0.00	29.577 
05:35	66.8	66.8	66.8	80	60.4	4	10	315	0.00	29.577 
05:40	66.3	66.3	66.3	80	59.9	3	7	292	0.00	29.577 
05:45	66.0	66.0	66.0	80	59.6	4	9	292	0.00	29.590 
05:50	65.8	65.8	65.8	80	59.5	3	7	292	0.00	29.590 
05:55	65.5	65.5	65.5	81	59.5	2	5	292	0.00	29.590 
06:00	65.2	65.2	65.2	81	59.2	2	5	270	0.00	29.592 
06:05	64.8	64.8	64.8	81	58.8	2	5	315	0.00	29.592 
06:10	64.5	64.5	64.5	81	58.5	3	5	315	0.00	29.592 
06:15	64.3	64.3	64.3	82	58.7	2	4	292	0.00	29.604 
06:20	64.2	64.2	64.2	82	58.6	3	6	292	0.00	29.604 
06:25	64.0	64.0	64.0	83	58.7	2	7	292	0.00	29.604 
06:30	63.9	63.9	63.9	83	58.6	2	5	292	0.00	29.613 
06:35	63.9	63.9	63.9	83	58.6	2	5	292	0.00	29.613 
06:40	63.9	63.9	63.9	83	58.6	2	5	315	0.00	29.613 
06:45	64.0	64.0	64.0	82	58.4	2	6	292	0.00	29.624 
06:50	64.0	64.0	64.0	82	58.4	2	5	292	0.00	29.624 
06:55	64.0	64.0	64.0	80	57.7	2	6	292	0.00	29.624 
07:00	64.0	64.0	64.0	80	57.7	2	6	292	0.00	29.638 
07:05	64.2	64.2	64.2	79	57.5	3	5	292	0.00	29.638 
07:10	64.2	64.2	64.2	79	57.5	4	10	292	0.00	29.638 
07:15	64.0	64.0	64.0	79	57.4	3	7	315	0.00	29.651 
07:20	64.0	64.0	64.0	80	57.7	2	5	315	0.00	29.651 
07:25	63.7	63.7	63.7	79	57.1	3	5	292	0.00	29.651 
07:30	63.5	63.5	63.5	79	56.9	3	10	292	0.00	29.661 
07:35	63.4	63.4	63.4	79	56.8	3	6	270	0.00	29.661 
07:40	63.4	63.4	63.4	80	57.1	1	3	315	0.00	29.661 
07:45	63.2	63.2	63.2	79	56.6	2	4	315	0.00	29.672 
07:50	63.2	63.2	63.2	79	56.6	1	5	315	0.00	29.672 
07:55	63.1	63.1	63.1	79	56.5	2	4	315	0.00	29.672 
08:00	63.1	63.1	63.1	80	56.8	2	5	315	0.00	29.678 
08:05	63.1	63.1	63.1	80	56.8	2	7	292	0.00	29.678 
08:10	62.9	62.9	62.9	79	56.3	3	10	292	0.00	29.678 
08:15	62.7	62.7	62.7	79	56.1	3	6	292	0.00	29.692 
08:20	62.6	62.6	62.6	79	56.0	3	7	315	0.00	29.692 
08:25	62.4	62.4	62.4	78	55.4	3	7	270	0.00	29.692 
08:30	62.1	62.1	62.1	77	54.8	3	7	315	0.00	29.708 
08:35	62.0	62.0	62.0	77	54.7	4	8	292	0.00	29.708 
08:40	62.4	62.4	62.4	77	55.1	3	9	292	0.00	29.708 
08:45	62.4	62.4	62.4	75	54.4	2	6	292	0.00	29.707 
08:50	62.4	62.4	62.4	76	54.7	2	6	270	0.00	29.707 
08:55	62.4	62.4	62.4	76	54.7	3	10	315	0.00	29.707 
09:00	62.4	62.4	62.4	76	54.7	3	7	292	0.00	29.722 
09:05	62.4	62.4	62.4	76	54.7	2	7	315	0.00	29.722 
09:10	62.4	62.4	62.4	74	54.0	3	11	270	0.00	29.722 
09:15	62.4	62.4	62.4	74	54.0	3	8	292	0.00	29.737 
09:20	62.4	62.4	62.4	75	54.4	3	5	315	0.00	29.737 
09:25	62.6	62.6	62.6	75	54.6	1	6	292	0.00	29.737 
09:30	62.6	62.6	62.6	76	54.9	1	7	292	0.00	29.742 
09:35	62.4	62.4	62.4	75	54.4	2	5	315	0.00	29.742 
09:40	62.3	62.3	62.3	75	54.3	3	6	315	0.00	29.742 
09:45	62.4	62.4	62.4	77	55.1	2	5	270	0.00	29.751 
09:50	62.4	62.4	62.4	77	55.1	2	4	315	0.00	29.751 
09:55	62.4	62.4	62.4	76	54.7	3	5	315	0.00	29.751 
10:00	62.7	62.7	62.7	76	55.0	2	7	248	0.00	29.753 
10:05	62.9	62.9	62.9	76	55.2	2	5	270	0.00	29.753 
10:10	63.4	63.4	63.4	75	55.3	2	6	315	0.00	29.753 
10:15	63.4	63.4	63.4	74	55.0	3	6	315	0.00	29.764 
10:20	63.5	63.5	63.5	74	55.1	2	5	292	0.00	29.764 
10:25	63.5	63.5	63.5	73	54.7	3	7	270	0.00	29.764 
10:30	63.4	63.4	63.4	74	55.0	2	5	292	0.00	29.768 
10:35	63.4	63.4	63.4	73	54.6	3	7	315	0.00	29.768 
10:40	63.5	63.5	63.5	74	55.1	2	5	315	0.00	29.768 
10:45	63.4	63.4	63.4	73	54.6	3	5	315	0.00	29.779 
10:50	63.4	63.4	63.4	73	54.6	2	6	315	0.00	29.779 
10:55	63.2	63.2	63.2	73	54.4	3	6	292	0.00	29.779 
11:00	63.4	63.4	63.4	74	55.0	3	5	315	0.00	29.783 
11:05	63.2	63.2	63.2	73	54.4	3	5	292	0.00	29.783 
11:10	63.1	63.1	63.1	73	54.3	2	6	315	0.00	29.783 
11:15	62.9	62.9	62.9	74	54.5	2	4	315	0.00	29.786 
11:20	62.9	62.9	62.9	74	54.5	2	5	315	0.00	29.786 
11:25	63.1	63.1	63.1	74	54.7	1	3	292	0.00	29.786 
11:30	63.5	63.5	63.5	74	55.1	1	4	315	0.00	29.790 
11:35	63.9	63.9	63.9	73	55.1	2	4	338	0.00	29.790 
11:40	64.2	64.2	64.2	73	55.4	3	7	292	0.00	29.790 
11:45	64.5	64.5	64.5	72	55.3	3	5	292	0.00	29.796 
11:50	64.7	64.7	64.7	72	55.5	2	4	292	0.00	29.796 
11:55	64.7	64.7	64.7	71	55.1	2	5	315	0.00	29.796 
12:00	64.5	64.5	64.5	71	54.9	2	5	315	0.00	29.798 
12:05	64.8	64.8	64.8	72	55.6	2	5	315	0.00	29.798 
12:10	65.2	65.2	65.2	70	55.2	2	6	292	0.00	29.798 
12:15	65.6	65.6	65.6	71	55.9	1	4	292	0.00	29.797 
12:20	66.4	66.4	66.4	71	56.7	1	4	315	0.00	29.797 
12:25	66.9	66.9	66.9	70	56.8	1	3	315	0.00	29.797 
12:30	67.6	67.6	67.6	67	56.2	2	5	315	0.00	29.796 
12:35	67.6	67.6	67.6	65	55.4	3	9	315	0.00	29.796 
12:40	67.3	67.3	67.3	65	55.1	2	4	315	0.00	29.796 
12:45	67.3	67.3	67.3	67	56.0	2	4	315	0.00	29.799 
12:50	67.4	67.4	67.4	66	55.6	1	4	338	0.00	29.799 
12:55	67.6	67.6	67.6	68	56.7	1	5	338	0.00	29.799 
13:00	68.8	68.8	68.8	65	56.5	2	4	292	0.00	29.797 
13:05	69.6	69.6	69.6	63	56.4	1	3	270	0.00	29.797 
13:10	70.1	70.1	70.1	60	55.6	1	6	315	0.00	29.797 
13:15	69.1	69.1	69.1	59	54.2	2	5	315	0.00	29.794 
13:20	68.6	68.6	68.6	62	55.0	3	8	270	0.00	29.794 
13:25	68.4	68.4	68.4	61	54.4	3	7	315	0.00	29.794 
13:30	69.3	69.3	69.3	61	55.3	2	5	315	0.00	29.798 
13:35	70.1	70.1	70.1	60	55.6	1	3	315	0.00	29.798 
13:40	70.6	70.6	70.6	59	55.6	3	9	315	0.00	29.798 
13:45	70.4	70.4	70.4	59	55.4	3	7	270	0.00	29.804 
13:50	69.9	69.9	69.9	57	54.0	2	6	315	0.00	29.804 
13:55	70.1	70.1	70.1	61	56.0	2	4	292	0.00	29.804 
14:00	70.8	70.8	70.8	59	55.7	3	9	270	0.00	29.798 
14:05	71.1	71.1	71.1	58	55.6	3	6	270	0.00	29.798 
14:10	70.9	70.9	70.9	59	55.8	2	3	338	0.00	29.798 
14:15	71.3	71.3	71.3	56	54.8	4	7	270	0.00	29.796 
14:20	71.1	71.1	71.1	56	54.6	4	7	270	0.00	29.796 
14:25	70.9	70.9	70.9	56	54.4	4	7	315	0.00	29.796 
14:30	71.3	71.3	71.3	55	54.3	4	9	292	0.00	29.799 
14:35	71.8	71.8	71.8	57	55.7	2	9	292	0.00	29.799 
14:40	72.1	72.1	72.1	55	55.0	3	7	315	0.00	29.799 
14:45	72.1	72.1	72.1	55	55.0	3	7	315	0.00	29.795 
14:50	72.1	72.1	72.1	54	54.5	3	6	315	0.00	29.795 
14:55	72.0	72.0	72.0	53	53.9	4	10	270	0.00	29.795 
15:00	72.0	72.0	72.0	54	54.4	5	10	270	0.00	29.798 
15:05	72.3	72.3	72.3	57	56.2	2	5	315	0.00	29.798 
15:10	72.0	72.0	72.0	52	53.4	4	9	315	0.00	29.798 
15:15	71.1	71.1	71.1	54	53.6	2	4	315	0.00	29.805 
15:20	71.5	71.5	71.5	54	54.0	3	11	315	0.00	29.805 
15:25	71.8	71.8	71.8	52	53.2	4	9	292	0.00	29.805 
15:30	71.5	71.5	71.5	54	54.0	4	11	292	0.00	29.810 
15:35	70.6	70.6	70.6	55	53.6	3	6	315	0.00	29.810 
15:40	70.3	70.3	70.3	56	53.8	3	9	270	0.00	29.810 
15:45	69.9	69.9	69.9	56	53.5	3	9	270	0.00	29.813 
15:50	70.4	70.4	70.4	56	53.9	4	10	270	0.00	29.813 
15:55	70.1	70.1	70.1	55	53.2	4	10	315	0.00	29.813 
16:00	70.3	70.3	70.3	58	54.8	4	9	270	0.00	29.817 
16:05	70.1	70.1	70.1	54	52.7	5	13	270	0.00	29.817 
16:10	69.9	69.9	69.9	56	53.5	3	7	315	0.00	29.817 
16:15	69.8	69.8	69.8	56	53.4	5	12	315	0.00	29.821 
16:20	69.3	69.3	69.3	57	53.4	3	9	270	0.00	29.821 
16:25	68.9	68.9	68.9	58	53.5	3	7	315	0.00	29.821 
16:30	69.4	69.4	69.4	55	52.5	3	8	315	0.00	29.825 
16:35	69.1	69.1	69.1	57	53.2	3	10	315	0.00	29.825 
16:40	68.6	68.6	68.6	58	53.2	2	6	315	0.00	29.825 
16:45	68.6	68.6	68.6	56	52.3	3	7	315	0.00	29.830 
16:50	68.4	68.4	68.4	56	52.1	3	8	292	0.00	29.830 
16:55	68.8	68.8	68.8	57	52.9	3	5	292	0.00	29.830 
17:00	69.3	69.3	69.3	57	53.4	4	11	292	0.00	29.832 
17:05	69.3	69.3	69.3	57	53.4	2	7	292	0.00	29.832 
17:10	69.8	69.8	69.8	55	52.9	3	7	315	0.00	29.832 
17:15	69.6	69.6	69.6	54	52.2	3	6	292	0.00	29.835 
17:20	69.6	69.6	69.6	56	53.2	3	9	292	0.00	29.835 
17:25	69.9	69.9	69.9	57	54.0	2	5	270	0.00	29.835 
17:30	69.8	69.8	69.8	56	53.4	2	5	315	0.00	29.836 
17:35	69.4	69.4	69.4	55	52.5	3	6	315	0.00	29.836 
17:40	69.4	69.4	69.4	56	53.0	3	6	270	0.00	29.836 
17:45	69.8	69.8	69.8	56	53.4	3	6	270	0.00	29.836 
17:50	70.3	70.3	70.3	57	54.3	2	7	292	0.00	29.836 
17:55	69.8	69.8	69.8	57	53.9	1	6	338	0.00	29.836 
18:00	69.1	69.1	69.1	57	53.2	1	5	292	0.00	29.838 
18:05	68.6	68.6	68.6	58	53.2	2	4	292	0.00	29.838 
18:10	68.3	68.3	68.3	58	52.9	1	5	315	0.00	29.838 
18:15	68.3	68.3	68.3	59	53.4	2	4	292	0.00	29.842 
18:20	68.6	68.6	68.6	58	53.2	1	5	292	0.00	29.842 
18:25	68.3	68.3	68.3	58	52.9	1	3	338	0.00	29.842 
18:30	68.1	68.1	68.1	59	53.2	1	5	315	0.00	29.837 
18:35	68.1	68.1	68.1	59	53.2	2	4	315	0.00	29.837 
18:40	68.1	68.1	68.1	58	52.8	1	4	315	0.00	29.837 
18:45	68.6	68.6	68.6	57	52.7	2	5	270	0.00	29.839 
18:50	68.6	68.6	68.6	58	53.2	0	2	315	0.00	29.839 
18:55	68.1	68.1	68.1	57	52.3	1	5	315	0.00	29.839 
19:00	67.8	67.8	67.8	58	52.5	1	4	315	0.00	29.848 
19:05	67.6	67.6	67.6	60	53.2	0	3	315	0.00	29.848 
19:10	67.6	67.6	67.6	58	52.3	1	3	315	0.00	29.848 
19:15	67.6	67.6	67.6	58	52.3	1	4	315	0.00	29.848 
19:20	67.8	67.8	67.8	59	52.9	1	3	315	0.00	29.848 
19:25	67.6	67.6	67.6	58	52.3	2	4	315	0.00	29.848 
19:30	67.6	67.6	67.6	58	52.3	2	5	315	0.00	29.852 
19:35	67.6	67.6	67.6	59	52.8	1	3	315	0.00	29.852 
19:40	67.4	67.4	67.4	58	52.1	2	5	315	0.00	29.852 
19:45	67.3	67.3	67.3	58	52.0	1	4	270	0.00	29.855 
19:50	67.4	67.4	67.4	58	52.1	1	5	315	0.00	29.855 
19:55	67.6	67.6	67.6	58	52.3	2	6	292	0.00	29.855 
20:00	67.4	67.4	67.4	58	52.1	2	5	315	0.00	29.857 
20:05	67.3	67.3	67.3	59	52.5	1	3	292	0.00	29.857 
20:10	67.1	67.1	67.1	59	52.3	1	3	270	0.00	29.857 
20:15	67.1	67.1	67.1	60	52.7	0	3	338	0.00	29.862 
20:20	67.1	67.1	67.1	60	52.7	0	2	338	0.00	29.862 
20:25	67.1	67.1	67.1	60	52.7	1	3	338	0.00	29.862 
20:30	67.1	67.1	67.1	60	52.7	1	3	338	0.00	29.869 
20:35	66.9	66.9	66.9	60	52.6	0	2	338	0.00	29.869 
20:40	66.8	66.8	66.8	61	52.9	1	2	338	0.00	29.869 
20:45	66.6	66.6	66.6	61	52.7	0	2	338	0.00	29.871 
20:50	66.4	66.4	66.4	62	53.0	0	1	338	0.00	29.871 
20:55	66.3	66.3	66.3	62	52.9	0	2	338	0.00	29.871 
21:00	66.0	66.0	66.0	62	52.6	0	1	338	0.00	29.872 
21:05	65.8	65.8	65.8	63	52.8	0	1	338	0.00	29.872 
21:10	65.6	65.6	65.6	63	52.7	0	1	338	0.00	29.872 
21:15	65.5	65.5	65.5	63	52.6	0	1	338	0.00	29.877 
21:20	65.3	65.3	65.3	63	52.4	0	1	338	0.00	29.877 
21:25	65.2	65.2	65.2	64	52.7	0	4	292	0.00	29.877 
21:30	65.0	65.0	65.0	64	52.5	0	2	292	0.00	29.881 
21:35	64.8	64.8	64.8	64	52.3	0	1	292	0.00	29.881 
21:40	64.7	64.7	64.7	64	52.2	0	1	292	0.00	29.881 
21:45	64.5	64.5	64.5	65	52.5	0	0	---	0.00	29.882 
21:50	64.3	64.3	64.3	65	52.3	0	0	---	0.00	29.882 
21:55	64.2	64.2	64.2	66	52.6	0	0	---	0.00	29.882 
22:00	64.0	64.0	64.0	66	52.4	0	0	---	0.00	29.889 
22:05	63.9	63.9	63.9	67	52.7	0	0	---	0.00	29.889 
22:10	63.7	63.7	63.7	68	52.9	0	0	---	0.00	29.889 
22:15	63.5	63.5	63.5	69	53.1	0	0	---	0.00	29.889 
22:20	63.2	63.2	63.2	70	53.2	0	0	---	0.00	29.889 
22:25	63.1	63.1	63.1	70	53.2	0	0	---	0.00	29.889 
22:30	62.7	62.7	62.7	71	53.2	0	0	---	0.00	29.901 
22:35	62.6	62.6	62.6	72	53.4	0	0	---	0.00	29.901 
22:40	62.6	62.6	62.6	72	53.4	0	0	---	0.00	29.901 
22:45	62.4	62.4	62.4	72	53.2	0	0	---	0.00	29.902 
22:50	62.4	62.4	62.4	72	53.2	0	0	---	0.00	29.902 
22:55	62.4	62.4	62.4	73	53.6	0	0	---	0.00	29.902 
23:00	62.3	62.3	62.3	73	53.5	0	0	---	0.00	29.906 
23:05	62.1	62.1	62.1	73	53.3	0	1	292	0.00	29.906 
23:10	62.1	62.1	62.1	73	53.3	0	0	---	0.00	29.906 
23:15	62.1	62.1	62.1	73	53.3	0	1	292	0.00	29.904 
23:20	62.1	62.1	62.1	73	53.3	0	0	---	0.00	29.904 
23:25	62.0	62.0	62.0	73	53.2	0	1	292	0.00	29.904 
23:30	61.8	61.8	61.8	74	53.4	0	0	---	0.00	29.902 
23:35	61.5	61.5	61.5	75	53.5	0	0	---	0.00	29.902 
23:40	61.2	61.2	61.2	76	53.6	0	0	---	0.00	29.902 
23:45	61.0	61.0	61.0	76	53.4	0	0	---	0.00	29.903 
23:50	60.9	60.9	60.9	77	53.6	0	0	---	0.00	29.903 
23:55	60.9	60.9	60.9	77	53.6	0	0	---	0.00	29.903 

CoCoRaHS
IN-AL-39
A2 Web Hosting
Creative Commons License
GoDaddy
search engine by freefind advanced

loaded 2018-11-16 00:14:54 • last modified 2010-11-18 10:43:29
Privacy PolicyDisclaimer
• wx.awcolley.com is powered by PmWiki v.2002016 •
• all content (unless otherwise noted) © 2018 A W Colley